createdAt,value
2022-10-02T00:01:05.017Z,380.77
2022-10-02T00:03:37.208Z,370.98
2022-10-02T00:06:09.325Z,380.52
2022-10-02T00:08:39.159Z,400.13
2022-10-02T00:11:10.670Z,413.55
2022-10-02T00:13:41.161Z,394.25
2022-10-02T00:16:18.130Z,360.70
2022-10-02T00:18:47.094Z,350.67
2022-10-02T00:21:24.101Z,370.38
2022-10-02T00:23:54.942Z,324.73
2022-10-02T00:26:26.281Z,339.30
2022-10-02T00:29:00.281Z,359.23
2022-10-02T00:31:35.443Z,360.88
2022-10-02T00:34:19.836Z,364.38
2022-10-02T00:36:55.258Z,379.30
2022-10-02T00:39:32.474Z,370.90
2022-10-02T00:42:20.221Z,361.10
2022-10-02T00:44:56.156Z,368.52
2022-10-02T00:47:31.193Z,373.90
2022-10-02T00:50:05.348Z,372.50
2022-10-02T00:53:00.748Z,384.23
2022-10-02T00:55:46.790Z,363.17
2022-10-02T00:58:32.233Z,383.60
2022-10-02T01:01:04.803Z,374.65
2022-10-02T01:03:35.944Z,366.30
2022-10-02T01:06:04.402Z,362.73
2022-10-02T01:08:32.584Z,337.48
2022-10-02T01:11:01.155Z,336.50
2022-10-02T01:13:31.619Z,372.02
2022-10-02T01:16:01.258Z,382.33
2022-10-02T01:18:30.767Z,396.48
2022-10-02T01:21:01.331Z,412.50
2022-10-02T01:23:33.490Z,420.70
2022-10-02T01:26:03.076Z,451.17
2022-10-02T01:28:31.121Z,430.52
2022-10-02T01:31:01.957Z,454.35
2022-10-02T01:33:29.994Z,458.30
2022-10-02T01:35:58.335Z,454.52
2022-10-02T01:38:26.980Z,446.77
2022-10-02T01:40:54.905Z,454.67
2022-10-02T01:43:26.557Z,477.58
2022-10-02T01:46:00.580Z,439.73
2022-10-02T01:48:39.987Z,432.52
2022-10-02T01:51:18.461Z,434.50
2022-10-02T01:53:50.390Z,454.85
2022-10-02T01:56:22.674Z,463.25
2022-10-02T01:59:00.752Z,459.42
2022-10-02T02:01:41.636Z,435.58
2022-10-02T02:04:16.635Z,406.92
2022-10-02T02:06:51.160Z,421.77
2022-10-02T02:09:22.455Z,391.80
2022-10-02T02:11:54.914Z,370.92
2022-10-02T02:14:27.057Z,386.35
2022-10-02T02:16:57.546Z,352.08
2022-10-02T02:19:27.623Z,345.90
2022-10-02T02:21:59.293Z,335.88
2022-10-02T02:24:29.488Z,330.60
2022-10-02T02:27:00.114Z,345.17
2022-10-02T02:29:31.405Z,334.60
2022-10-02T02:32:01.085Z,347.63
2022-10-02T02:34:31.711Z,340.88
2022-10-02T02:37:06.014Z,358.85
2022-10-02T02:39:37.910Z,385.60
2022-10-02T02:42:09.109Z,394.23
2022-10-02T02:44:41.889Z,417.00
2022-10-02T02:47:12.900Z,415.50
2022-10-02T02:49:49.476Z,383.83
2022-10-02T02:52:20.828Z,402.45
2022-10-02T02:54:54.062Z,398.83
2022-10-02T02:57:27.279Z,425.60
2022-10-02T02:59:59.637Z,443.02
2022-10-02T03:02:27.621Z,414.75
2022-10-02T03:04:55.534Z,435.90
2022-10-02T03:07:23.676Z,395.33
2022-10-02T03:10:01.580Z,385.08
2022-10-02T03:12:40.972Z,409.50
2022-10-02T03:15:28.518Z,404.00
2022-10-02T03:18:11.659Z,398.85
2022-10-02T03:20:43.941Z,399.38
2022-10-02T03:23:18.629Z,394.88
2022-10-02T03:25:53.009Z,369.08
2022-10-02T03:28:50.510Z,344.92
2022-10-02T03:31:16.292Z,336.23
2022-10-02T03:33:45.340Z,340.83
2022-10-02T03:36:14.269Z,356.02
2022-10-02T03:38:43.454Z,321.98
2022-10-02T03:41:11.309Z,328.85
2022-10-02T03:43:39.696Z,379.63
2022-10-02T03:46:07.908Z,347.58
2022-10-02T03:48:39.131Z,283.55
2022-10-02T03:51:07.346Z,370.75
2022-10-02T03:53:35.601Z,398.15
2022-10-02T03:56:09.056Z,416.63
2022-10-02T03:58:39.671Z,392.42
2022-10-02T04:01:12.352Z,370.30
2022-10-02T04:03:47.029Z,376.55
2022-10-02T04:06:17.266Z,400.65
2022-10-02T04:08:47.527Z,386.48
2022-10-02T04:11:18.789Z,368.17
2022-10-02T04:13:49.824Z,311.10
2022-10-02T04:16:20.287Z,355.90
2022-10-02T04:18:54.862Z,366.58
2022-10-02T04:21:31.129Z,355.98
2022-10-02T04:24:03.575Z,359.77
2022-10-02T04:26:35.607Z,356.40
2022-10-02T04:29:10.295Z,396.15
2022-10-02T04:31:38.409Z,367.23
2022-10-02T04:34:11.687Z,396.25
2022-10-02T04:36:47.287Z,396.50
2022-10-02T04:39:26.108Z,382.40
2022-10-02T04:42:02.973Z,388.42
2022-10-02T04:44:47.773Z,359.20
2022-10-02T04:47:29.973Z,367.88
2022-10-02T04:50:20.318Z,351.40
2022-10-02T04:53:12.069Z,372.33
2022-10-02T04:55:53.836Z,316.30
2022-10-02T04:58:47.463Z,317.60
2022-10-02T05:01:26.304Z,348.50
2022-10-02T05:04:05.536Z,347.23
2022-10-02T05:06:43.214Z,317.17
2022-10-02T05:09:18.048Z,315.23
2022-10-02T05:11:55.209Z,317.48
2022-10-02T05:14:37.421Z,336.50
2022-10-02T05:17:16.153Z,354.50
2022-10-02T05:20:03.749Z,347.83
2022-10-02T05:22:50.133Z,353.65
2022-10-02T05:25:39.233Z,360.77
2022-10-02T05:28:28.586Z,378.27
2022-10-02T05:31:05.342Z,361.73
2022-10-02T05:33:48.647Z,360.20
2022-10-02T05:36:47.605Z,400.42
2022-10-02T05:39:21.273Z,380.70
2022-10-02T05:41:54.277Z,378.40
2022-10-02T05:44:27.630Z,375.63
2022-10-02T05:47:01.774Z,390.20
2022-10-02T05:49:35.020Z,406.17
2022-10-02T05:52:06.955Z,410.30
2022-10-02T05:54:43.901Z,427.67
2022-10-02T05:57:18.379Z,398.52
2022-10-02T05:59:52.924Z,390.67
2022-10-02T06:02:28.254Z,349.52
2022-10-02T06:05:01.604Z,411.58
2022-10-02T06:07:31.216Z,421.08
2022-10-02T06:10:04.171Z,454.95
2022-10-02T06:12:35.509Z,456.10
2022-10-02T06:15:08.091Z,476.10
2022-10-02T06:17:40.091Z,447.90
2022-10-02T06:20:16.331Z,488.15
2022-10-02T06:22:48.084Z,481.40
2022-10-02T06:25:22.481Z,486.40
2022-10-02T06:27:56.173Z,495.25
2022-10-02T06:30:24.744Z,488.17
2022-10-02T06:32:56.370Z,489.42
2022-10-02T06:35:37.820Z,477.13
2022-10-02T06:38:17.661Z,507.30
2022-10-02T06:40:51.747Z,471.73
2022-10-02T06:43:33.881Z,477.58
2022-10-02T06:46:10.628Z,469.58
2022-10-02T06:48:44.074Z,426.55
2022-10-02T06:51:18.841Z,420.15
2022-10-02T06:54:22.940Z,440.90
2022-10-02T06:57:14.370Z,447.35
2022-10-02T06:59:55.803Z,424.42
2022-10-02T07:02:45.111Z,450.17
2022-10-02T07:06:01.287Z,512.15
2022-10-02T07:08:37.979Z,503.50
2022-10-02T07:11:12.699Z,503.67
2022-10-02T07:13:53.494Z,503.75
2022-10-02T07:16:41.541Z,518.03
2022-10-02T07:19:22.965Z,536.42
2022-10-02T07:21:58.694Z,527.08
2022-10-02T07:24:50.462Z,526.60
2022-10-02T07:27:22.629Z,526.75
2022-10-02T07:29:55.813Z,502.90
2022-10-02T07:32:42.944Z,509.90
2022-10-02T07:35:45.121Z,521.45
2022-10-02T07:38:24.811Z,512.08
2022-10-02T07:41:01.393Z,548.70
2022-10-02T07:43:39.257Z,526.30
2022-10-02T07:46:17.046Z,526.30
2022-10-02T07:48:55.158Z,517.17
2022-10-02T07:51:50.242Z,521.70
2022-10-02T07:54:33.959Z,509.17
2022-10-02T07:57:09.083Z,515.22
2022-10-02T07:59:41.267Z,485.73
2022-10-02T08:02:28.342Z,493.08
2022-10-02T08:04:59.672Z,501.08
2022-10-02T08:07:28.673Z,504.35
2022-10-02T08:09:57.892Z,508.35
2022-10-02T08:12:29.068Z,493.17
2022-10-02T08:14:57.689Z,497.88
2022-10-02T08:17:31.963Z,514.90
2022-10-02T08:20:05.286Z,522.45
2022-10-02T08:22:36.946Z,468.10
2022-10-02T08:25:10.142Z,419.77
2022-10-02T08:27:49.148Z,455.35
2022-10-02T08:30:18.531Z,418.35
2022-10-02T08:32:48.909Z,418.10
2022-10-02T08:35:17.910Z,324.98
2022-10-02T08:37:59.891Z,316.65
2022-10-02T08:41:05.136Z,310.60
2022-10-02T08:43:55.654Z,301.38
2022-10-02T08:46:58.681Z,280.95
2022-10-02T08:50:08.104Z,266.20
2022-10-02T08:53:24.974Z,282.23
2022-10-02T08:56:23.372Z,287.73
2022-10-02T08:59:19.189Z,285.98
2022-10-02T09:02:09.460Z,263.42
2022-10-02T09:05:19.965Z,267.35
2022-10-02T09:08:19.696Z,258.10
2022-10-02T09:11:02.046Z,253.85
2022-10-02T09:13:51.897Z,282.23
2022-10-02T09:16:29.348Z,281.23
2022-10-02T09:19:03.142Z,274.65
2022-10-02T09:21:52.559Z,292.92
2022-10-02T09:24:46.813Z,277.65
2022-10-02T09:27:38.859Z,311.70
2022-10-02T09:30:33.352Z,272.35
2022-10-02T09:33:43.351Z,302.33
2022-10-02T09:36:47.044Z,296.17
2022-10-02T09:39:33.723Z,294.67
2022-10-02T09:42:40.042Z,301.15
2022-10-02T09:45:51.501Z,323.08
2022-10-02T09:49:03.161Z,331.10
2022-10-02T09:52:02.573Z,338.02
2022-10-02T09:55:10.763Z,337.80
2022-10-02T09:58:09.950Z,356.63
2022-10-02T10:00:55.220Z,389.63
2022-10-02T10:03:43.942Z,454.38
2022-10-02T10:06:31.366Z,478.85
2022-10-02T10:09:44.625Z,496.08
2022-10-02T10:12:49.502Z,548.80
2022-10-02T10:15:58.701Z,529.80
2022-10-02T10:18:49.836Z,552.55
2022-10-02T10:21:38.398Z,547.63
2022-10-02T10:24:16.754Z,556.90
2022-10-02T10:27:11.898Z,546.97
2022-10-02T10:30:01.830Z,553.08
2022-10-02T10:33:04.686Z,556.78
2022-10-02T10:35:48.400Z,547.30
2022-10-02T10:38:38.543Z,544.80
2022-10-02T10:41:19.478Z,546.53
2022-10-02T10:44:15.662Z,541.53
2022-10-02T10:47:04.232Z,538.97
2022-10-02T10:50:04.086Z,521.42
2022-10-02T10:53:04.571Z,568.15
2022-10-02T10:55:50.567Z,529.78
2022-10-02T10:58:23.144Z,542.13
2022-10-02T11:01:07.079Z,522.88
2022-10-02T11:03:58.475Z,511.88
2022-10-02T11:07:01.156Z,500.23
2022-10-02T11:09:47.834Z,495.17
2022-10-02T11:12:28.268Z,477.17
2022-10-02T11:15:07.469Z,512.75
2022-10-02T11:17:54.125Z,510.60
2022-10-02T11:21:01.190Z,491.08
2022-10-02T11:23:48.369Z,485.15
2022-10-02T11:26:39.022Z,497.20
2022-10-02T11:29:53.008Z,501.98
2022-10-02T11:32:44.461Z,492.77
2022-10-02T11:35:21.195Z,495.83
2022-10-02T11:38:07.066Z,515.33
2022-10-02T11:40:50.943Z,501.08
2022-10-02T11:43:29.380Z,490.27
2022-10-02T11:46:09.652Z,454.15
2022-10-02T11:49:20.292Z,471.05
2022-10-02T11:52:08.822Z,476.95
2022-10-02T11:54:50.048Z,489.52
2022-10-02T11:57:36.140Z,494.65
2022-10-02T12:00:12.501Z,407.63
2022-10-02T12:02:45.858Z,396.98
2022-10-02T12:05:39.288Z,378.13
2022-10-02T12:08:14.975Z,375.33
2022-10-02T12:10:50.293Z,349.95
2022-10-02T12:13:31.838Z,380.40
2022-10-02T12:16:07.829Z,392.55
2022-10-02T12:18:46.719Z,423.90
2022-10-02T12:21:44.244Z,456.58
2022-10-02T12:24:34.545Z,414.55
2022-10-02T12:27:10.660Z,387.45
2022-10-02T12:29:46.171Z,407.85
2022-10-02T12:32:26.364Z,403.90
2022-10-02T12:35:02.512Z,407.83
2022-10-02T12:37:36.034Z,396.33
2022-10-02T12:40:10.220Z,391.70
2022-10-02T12:43:05.563Z,390.17
2022-10-02T12:45:48.239Z,392.25
2022-10-02T12:48:24.797Z,421.40
2022-10-02T12:51:10.186Z,410.15
2022-10-02T12:54:03.921Z,382.45
2022-10-02T12:56:46.140Z,426.80
2022-10-02T12:59:18.872Z,362.08
2022-10-02T13:02:20.382Z,390.83
2022-10-02T13:05:46.957Z,292.40
2022-10-02T13:08:29.604Z,357.08
2022-10-02T13:11:04.652Z,345.13
2022-10-02T13:13:55.729Z,347.58
2022-10-02T13:16:29.495Z,326.30
2022-10-02T13:19:09.189Z,338.20
2022-10-02T13:21:47.361Z,362.08
2022-10-02T13:24:42.524Z,398.48
2022-10-02T13:27:21.277Z,401.27
2022-10-02T13:29:59.683Z,415.70
2022-10-02T13:32:48.207Z,423.38
2022-10-02T13:35:36.039Z,428.38
2022-10-02T13:38:25.569Z,420.08
2022-10-02T13:41:01.568Z,427.63
2022-10-02T13:43:40.915Z,432.60
2022-10-02T13:46:18.471Z,386.85
2022-10-02T13:48:55.250Z,417.67
2022-10-02T13:51:30.697Z,357.50
2022-10-02T13:54:11.749Z,396.50
2022-10-02T13:56:49.963Z,419.80
2022-10-02T13:59:29.049Z,409.25
2022-10-02T14:02:08.704Z,414.83
2022-10-02T14:04:46.277Z,403.08
2022-10-02T14:07:29.116Z,386.20
2022-10-02T14:10:05.367Z,421.08
2022-10-02T14:12:41.928Z,393.60
2022-10-02T14:15:26.804Z,394.50
2022-10-02T14:18:20.453Z,493.40
2022-10-02T14:20:52.902Z,426.38
2022-10-02T14:23:40.131Z,429.20
2022-10-02T14:26:15.205Z,379.30
2022-10-02T14:29:06.231Z,357.42
2022-10-02T14:31:58.025Z,354.73
2022-10-02T14:34:49.725Z,348.33
2022-10-02T14:37:31.814Z,351.02
2022-10-02T14:40:03.285Z,373.20
2022-10-02T14:42:39.142Z,335.38
2022-10-02T14:45:23.060Z,350.33
2022-10-02T14:48:12.612Z,306.50
2022-10-02T14:50:49.383Z,317.23
2022-10-02T14:53:56.244Z,326.27
2022-10-02T14:56:35.024Z,304.98
2022-10-02T14:59:13.196Z,312.75
2022-10-02T15:01:46.904Z,299.25
2022-10-02T15:04:26.729Z,294.27
2022-10-02T15:07:06.316Z,296.98
2022-10-02T15:09:41.745Z,327.83
2022-10-02T15:12:17.928Z,321.08
2022-10-02T15:14:55.655Z,339.42
2022-10-02T15:17:51.387Z,308.98
2022-10-02T15:20:27.850Z,320.27
2022-10-02T15:22:59.952Z,336.42
2022-10-02T15:25:49.208Z,320.98
2022-10-02T15:28:36.314Z,335.98
2022-10-02T15:31:13.046Z,344.27
2022-10-02T15:33:44.030Z,336.52
2022-10-02T15:36:41.386Z,338.25
2022-10-02T15:39:27.336Z,345.02
2022-10-02T15:42:05.232Z,333.52
2022-10-02T15:44:55.215Z,316.33
2022-10-02T15:47:35.868Z,326.73
2022-10-02T15:50:13.097Z,309.80
2022-10-02T15:52:45.205Z,318.90
2022-10-02T15:55:21.222Z,318.50
2022-10-02T15:58:03.993Z,327.52
2022-10-02T16:00:59.137Z,314.42
2022-10-02T16:03:32.826Z,322.58
2022-10-02T16:06:03.662Z,405.33
2022-10-02T16:09:03.714Z,462.08
2022-10-02T16:11:55.298Z,457.98
2022-10-02T16:14:31.344Z,466.38
2022-10-02T16:17:24.130Z,464.10
2022-10-02T16:20:23.549Z,473.27
2022-10-02T16:23:02.657Z,484.60
2022-10-02T16:25:41.756Z,501.10
2022-10-02T16:28:21.068Z,511.35
2022-10-02T16:31:05.885Z,528.03
2022-10-02T16:33:43.077Z,534.53
2022-10-02T16:36:31.896Z,538.78
2022-10-02T16:39:15.577Z,547.97
2022-10-02T16:41:58.721Z,539.08
2022-10-02T16:45:02.659Z,560.40
2022-10-02T16:47:35.666Z,569.15
2022-10-02T16:50:15.122Z,599.33
2022-10-02T16:52:47.869Z,606.15
2022-10-02T16:55:22.631Z,617.95
2022-10-02T16:57:55.830Z,615.35
2022-10-02T17:00:27.666Z,613.70
2022-10-02T17:02:58.700Z,612.90
2022-10-02T17:05:31.797Z,604.60
2022-10-02T17:08:02.809Z,614.45
2022-10-02T17:10:39.716Z,613.95
2022-10-02T17:13:17.033Z,605.33
2022-10-02T17:15:48.913Z,574.65
2022-10-02T17:18:25.681Z,578.30
2022-10-02T17:20:56.597Z,580.08
2022-10-02T17:23:29.753Z,566.85
2022-10-02T17:26:02.915Z,575.92
2022-10-02T17:28:36.833Z,580.63
2022-10-02T17:31:24.526Z,548.40
2022-10-02T17:33:54.035Z,552.95
2022-10-02T17:36:30.798Z,549.63
2022-10-02T17:39:22.476Z,510.75
2022-10-02T17:41:55.833Z,511.83
2022-10-02T17:44:39.893Z,488.48
2022-10-02T17:50:27.788Z,488.05
2022-10-02T17:53:16.740Z,501.50
2022-10-02T17:56:30.495Z,492.05
2022-10-02T17:59:40.150Z,499.48
2022-10-02T18:02:19.438Z,489.27
2022-10-02T18:04:59.268Z,471.83
2022-10-02T18:07:38.514Z,458.90
2022-10-02T18:10:17.638Z,454.17
2022-10-02T18:12:57.825Z,457.73
2022-10-02T18:15:34.240Z,419.17
2022-10-02T18:18:15.336Z,380.45
2022-10-02T18:20:51.207Z,399.30
2022-10-02T18:23:37.326Z,438.77
2022-10-02T18:26:18.945Z,420.17
2022-10-02T18:29:03.801Z,401.75
2022-10-02T18:31:55.746Z,419.08
2022-10-02T18:34:50.125Z,415.30
2022-10-02T18:37:28.232Z,413.50
2022-10-02T18:40:07.263Z,437.67
2022-10-02T18:42:48.029Z,417.75
2022-10-02T18:45:37.397Z,412.27
2022-10-02T18:48:19.999Z,422.80
2022-10-02T18:51:08.898Z,417.90
2022-10-02T18:53:47.572Z,441.55
2022-10-02T18:56:22.440Z,408.10
2022-10-02T18:59:02.616Z,409.27
2022-10-02T19:01:46.131Z,429.83
2022-10-02T19:04:31.264Z,398.58
2022-10-02T19:07:05.658Z,405.30
2022-10-02T19:09:35.909Z,386.85
2022-10-02T19:12:15.718Z,412.55
2022-10-02T19:14:49.329Z,393.58
2022-10-02T19:17:19.842Z,376.05
2022-10-02T19:19:47.649Z,379.52
2022-10-02T19:22:21.618Z,399.00
2022-10-02T19:24:52.099Z,421.67
2022-10-02T19:27:25.283Z,429.90
2022-10-02T19:29:57.982Z,458.13
2022-10-02T19:32:28.039Z,452.23
2022-10-02T19:35:04.191Z,442.70
2022-10-02T19:37:34.125Z,442.80
2022-10-02T19:40:04.104Z,461.15
2022-10-02T19:42:38.760Z,441.00
2022-10-02T19:45:09.900Z,456.00
2022-10-02T19:47:41.713Z,476.40
2022-10-02T19:50:21.928Z,472.13
2022-10-02T19:52:54.087Z,482.92
2022-10-02T19:55:24.136Z,481.80
2022-10-02T19:57:55.346Z,452.48
2022-10-02T20:00:26.275Z,454.70
2022-10-02T20:02:56.648Z,483.45
2022-10-02T20:05:26.528Z,483.48
2022-10-02T20:08:01.871Z,456.08
2022-10-02T20:10:34.251Z,467.27
2022-10-02T20:13:08.053Z,492.25
2022-10-02T20:16:00.141Z,454.10
2022-10-02T20:18:28.109Z,442.02
2022-10-02T20:20:59.893Z,445.13
2022-10-02T20:23:29.869Z,434.90
2022-10-02T20:25:59.570Z,452.90
2022-10-02T20:28:30.712Z,447.00
2022-10-02T20:31:03.580Z,429.08
2022-10-02T20:33:36.479Z,446.70
2022-10-02T20:36:09.185Z,442.55
2022-10-02T20:38:40.509Z,444.23
2022-10-02T20:41:13.381Z,428.60
2022-10-02T20:43:45.064Z,402.30
2022-10-02T20:46:42.101Z,398.02
2022-10-02T20:49:52.777Z,382.77
2022-10-02T20:52:52.349Z,364.63
2022-10-02T20:55:26.626Z,403.48
2022-10-02T20:58:31.698Z,387.25
2022-10-02T21:01:15.554Z,370.77
2022-10-02T21:04:07.011Z,364.17
2022-10-02T21:06:47.415Z,393.30
2022-10-02T21:09:49.576Z,390.00
2022-10-02T21:12:44.919Z,399.85
2022-10-02T21:15:31.047Z,388.40
2022-10-02T21:18:19.830Z,413.52
2022-10-02T21:21:03.254Z,420.38
2022-10-02T21:24:08.878Z,445.58
2022-10-02T21:26:57.492Z,473.92
2022-10-02T21:29:35.458Z,478.55
2022-10-02T21:32:27.765Z,478.83
2022-10-02T21:35:17.656Z,470.63
2022-10-02T21:37:58.491Z,489.25
2022-10-02T21:41:08.129Z,515.72
2022-10-02T21:44:11.349Z,545.20
2022-10-02T21:47:01.369Z,565.88
2022-10-02T21:50:04.446Z,545.10
2022-10-02T21:53:15.425Z,568.22
2022-10-02T21:56:01.194Z,577.75
2022-10-02T21:59:06.832Z,583.47
2022-10-02T22:02:08.563Z,561.97
2022-10-02T22:04:53.305Z,549.80
2022-10-02T22:07:22.832Z,554.55
2022-10-02T22:09:57.241Z,549.33
2022-10-02T22:12:38.419Z,503.90
2022-10-02T22:15:13.290Z,513.80
2022-10-02T22:17:52.536Z,523.53
2022-10-02T22:20:44.637Z,519.75
2022-10-02T22:23:30.783Z,519.55
2022-10-02T22:26:10.141Z,517.88
2022-10-02T22:28:44.805Z,514.25
2022-10-02T22:31:42.802Z,503.80
2022-10-02T22:34:23.297Z,497.10
2022-10-02T22:37:21.173Z,506.42
2022-10-02T22:39:55.302Z,473.70
2022-10-02T22:42:29.581Z,418.30
2022-10-02T22:45:01.152Z,383.90
2022-10-02T22:47:32.528Z,414.98
2022-10-02T22:50:05.889Z,426.50
2022-10-02T22:52:37.868Z,445.63
2022-10-02T22:55:11.214Z,486.08
2022-10-02T22:57:44.569Z,478.55
2022-10-02T23:00:17.786Z,473.88
2022-10-02T23:02:49.471Z,493.80
2022-10-02T23:05:22.656Z,492.27
2022-10-02T23:07:54.587Z,475.45
2022-10-02T23:10:29.000Z,482.98
2022-10-02T23:13:04.059Z,492.30
2022-10-02T23:15:39.890Z,465.20
2022-10-02T23:18:19.243Z,474.08
2022-10-02T23:20:52.748Z,437.70
2022-10-02T23:23:23.598Z,465.10
2022-10-02T23:25:53.851Z,458.50
2022-10-02T23:28:28.351Z,428.70
2022-10-02T23:31:03.267Z,385.42
2022-10-02T23:33:40.241Z,416.98
2022-10-02T23:36:17.580Z,414.85
2022-10-02T23:38:51.684Z,369.98
2022-10-02T23:41:40.138Z,315.50
2022-10-02T23:44:23.330Z,331.60
2022-10-02T23:47:03.815Z,335.40
2022-10-02T23:49:34.657Z,306.55
2022-10-02T23:52:15.361Z,327.92
2022-10-02T23:54:52.767Z,355.83
2022-10-02T23:57:33.115Z,342.63
